Time;durP1;ratioP1;P1;durP2;ratioP2;P2;SDS_P1;SDS_P2;PMS_P1;PMS_P2;Temp;Humidity;BMP_temperature;BMP_pressure;BME280_temperature;BME280_humidity;BME280_pressure;Samples;Min_cycle;Max_cycle;Signal;HPM_P1;HPM_P2
2022/03/02 00:01:41;;;;;;;16.33;11.30;;;;;;;;;;5170213;27;20223;-78
2022/03/02 00:04:07;;;;;;;15.73;10.30;;;;;;;;;;5144862;27;20208;-78
2022/03/02 00:06:33;;;;;;;15.90;10.10;;;;;;;;;;5080316;28;20217;-79
2022/03/02 00:08:59;;;;;;;16.60;10.60;;;;;;;;;;5051023;28;20438;-77
2022/03/02 00:11:25;;;;;;;19.90;10.27;;;;;;;;;;5045502;28;20470;-77
2022/03/02 00:13:51;;;;;;;14.05;9.43;;;;;;;;;;4943399;28;20695;-79
2022/03/02 00:18:50;;;;;;;16.30;10.70;;;;;;;;;;5193256;27;20303;-77
2022/03/02 00:21:16;;;;;;;17.45;11.10;;;;;;;;;;5187862;27;20291;-77
2022/03/02 00:23:42;;;;;;;16.05;10.48;;;;;;;;;;5172307;27;20221;-76
2022/03/02 00:26:09;;;;;;;18.17;10.70;;;;;;;;;;5181752;27;20269;-78
2022/03/02 00:28:35;;;;;;;17.25;10.00;;;;;;;;;;5109907;28;20192;-78
2022/03/02 00:31:01;;;;;;;20.43;10.60;;;;;;;;;;5110109;27;20533;-77
2022/03/02 00:33:27;;;;;;;16.85;9.93;;;;;;;;;;5119882;27;20426;-76
2022/03/02 00:35:53;;;;;;;18.23;10.52;;;;;;;;;;5018131;28;20209;-76
2022/03/02 00:38:19;;;;;;;16.27;10.15;;;;;;;;;;4885863;29;20231;-77
2022/03/02 00:42:46;;;;;;;18.08;10.30;;;;;;;;;;5193244;27;20496;-77
2022/03/02 00:45:12;;;;;;;14.85;9.43;;;;;;;;;;5167637;27;20191;-78
2022/03/02 00:47:39;;;;;;;19.73;11.35;;;;;;;;;;5171031;27;20208;-78
2022/03/02 00:50:05;;;;;;;16.70;10.30;;;;;;;;;;5170269;27;20181;-78
2022/03/02 00:52:31;;;;;;;14.85;9.85;;;;;;;;;;5131022;27;20641;-76
2022/03/02 00:54:57;;;;;;;16.27;9.48;;;;;;;;;;5119529;28;20183;-78
2022/03/02 00:57:23;;;;;;;15.23;8.80;;;;;;;;;;5124387;28;20229;-79
2022/03/02 00:59:49;;;;;;;18.73;9.98;;;;;;;;;;5129834;27;20463;-76
2022/03/02 01:02:15;;;;;;;16.73;9.63;;;;;;;;;;5054205;28;20316;-77
2022/03/02 01:07:27;;;;;;;14.98;9.38;;;;;;;;;;5172421;27;20509;-76
2022/03/02 01:09:53;;;;;;;15.33;9.87;;;;;;;;;;5187927;27;20184;-77
2022/03/02 01:12:19;;;;;;;14.77;9.55;;;;;;;;;;5192005;27;20512;-75
2022/03/02 01:14:45;;;;;;;14.57;10.00;;;;;;;;;;5191507;27;20271;-77
2022/03/02 01:17:11;;;;;;;13.23;8.38;;;;;;;;;;5155751;27;20218;-75
2022/03/02 01:19:39;;;;;;;15.73;9.40;;;;;;;;;;5150157;27;20189;-75
2022/03/02 01:22:05;;;;;;;15.40;9.15;;;;;;;;;;5123085;27;20196;-77
2022/03/02 01:24:31;;;;;;;15.80;8.60;;;;;;;;;;5084337;27;20201;-79
2022/03/02 01:26:57;;;;;;;14.80;8.80;;;;;;;;;;5040212;28;20241;-76
2022/03/02 01:32:38;;;;;;;11.95;8.77;;;;;;;;;;5192983;27;20492;-78
2022/03/02 01:35:04;;;;;;;12.80;8.13;;;;;;;;;;5187461;27;20193;-77
2022/03/02 01:37:30;;;;;;;12.35;9.18;;;;;;;;;;5171262;27;20280;-79
2022/03/02 01:39:56;;;;;;;13.32;8.45;;;;;;;;;;5170734;27;20189;-78
2022/03/02 01:42:23;;;;;;;14.90;9.25;;;;;;;;;;5140985;27;20190;-78
2022/03/02 01:44:49;;;;;;;12.25;7.95;;;;;;;;;;5127035;28;20178;-78
2022/03/02 01:47:15;;;;;;;11.77;8.30;;;;;;;;;;5105645;27;20269;-79
2022/03/02 01:49:41;;;;;;;13.00;8.77;;;;;;;;;;5022035;28;20195;-79
2022/03/02 01:52:07;;;;;;;14.20;8.50;;;;;;;;;;4997582;28;20236;-79
2022/03/02 01:57:11;;;;;;;12.05;8.32;;;;;;;;;;5174648;27;20509;-76
2022/03/02 01:59:37;;;;;;;15.13;8.50;;;;;;;;;;5170866;27;20188;-78
2022/03/02 02:02:03;;;;;;;15.88;8.10;;;;;;;;;;5192332;27;20233;-77
2022/03/02 02:04:30;;;;;;;15.95;9.13;;;;;;;;;;5191430;27;20538;-78
2022/03/02 02:06:56;;;;;;;14.02;9.07;;;;;;;;;;5154128;27;20211;-77
2022/03/02 02:09:22;;;;;;;20.05;9.23;;;;;;;;;;5091090;28;20565;-78
2022/03/02 02:11:48;;;;;;;13.35;8.85;;;;;;;;;;5085978;28;20592;-77
2022/03/02 02:14:14;;;;;;;14.57;8.90;;;;;;;;;;5042942;28;20233;-77
2022/03/02 02:16:40;;;;;;;14.05;8.68;;;;;;;;;;4941486;28;20479;-79
2022/03/02 02:22:21;;;;;;;12.68;8.52;;;;;;;;;;5193024;27;20492;-78
2022/03/02 02:24:47;;;;;;;11.93;8.48;;;;;;;;;;5187264;27;20196;-78
2022/03/02 02:27:15;;;;;;;13.65;8.82;;;;;;;;;;5173249;27;20212;-77
2022/03/02 02:29:42;;;;;;;18.58;9.30;;;;;;;;;;5168088;27;20188;-78
2022/03/02 02:32:08;;;;;;;15.48;9.10;;;;;;;;;;5120674;27;20192;-78
2022/03/02 02:34:34;;;;;;;13.93;8.63;;;;;;;;;;5104084;27;20197;-76
2022/03/02 02:37:01;;;;;;;15.25;8.05;;;;;;;;;;5144787;27;20841;-78
2022/03/02 02:39:27;;;;;;;14.90;8.25;;;;;;;;;;5131418;27;20274;-77
2022/03/02 02:41:53;;;;;;;16.25;8.52;;;;;;;;;;4988852;28;20220;-78
2022/03/02 02:47:34;;;;;;;15.77;8.77;;;;;;;;;;5192938;27;20481;-77
2022/03/02 02:50:00;;;;;;;15.13;7.90;;;;;;;;;;5187855;27;20195;-76
2022/03/02 02:52:26;;;;;;;14.93;8.77;;;;;;;;;;5192335;27;20480;-76
2022/03/02 02:54:52;;;;;;;11.52;8.00;;;;;;;;;;5191299;27;20460;-77
2022/03/02 02:57:18;;;;;;;12.80;7.80;;;;;;;;;;5125947;27;20299;-78
2022/03/02 02:59:44;;;;;;;13.73;9.27;;;;;;;;;;5040285;28;20437;-76
2022/03/02 03:02:10;;;;;;;12.87;8.23;;;;;;;;;;5041031;28;20198;-78
2022/03/02 03:04:36;;;;;;;14.35;8.35;;;;;;;;;;5043007;28;20456;-76
2022/03/02 03:07:02;;;;;;;17.00;9.70;;;;;;;;;;5029468;28;20253;-79
2022/03/02 03:09:28;;;;;;;13.40;6.95;;;;;;;;;;4999410;28;23987;-77
2022/03/02 03:13:17;;;;;;;19.98;10.23;;;;;;;;;;5193054;27;20480;-78
2022/03/02 03:15:43;;;;;;;11.30;7.55;;;;;;;;;;5163318;27;20266;-78
2022/03/02 03:18:09;;;;;;;13.10;7.40;;;;;;;;;;5171204;27;22406;-76
2022/03/02 03:20:35;;;;;;;15.15;7.80;;;;;;;;;;5170506;27;20192;-78
2022/03/02 03:23:01;;;;;;;15.25;9.02;;;;;;;;;;5121636;27;20203;-78
2022/03/02 03:25:28;;;;;;;10.90;8.40;;;;;;;;;;5110860;28;20301;-78
2022/03/02 03:27:55;;;;;;;16.65;7.82;;;;;;;;;;5107138;28;20254;-78
2022/03/02 03:30:22;;;;;;;12.95;8.35;;;;;;;;;;5095035;28;20189;-77
2022/03/02 03:32:48;;;;;;;14.13;7.75;;;;;;;;;;5021156;28;20654;-77
2022/03/02 03:37:51;;;;;;;13.15;8.48;;;;;;;;;;5192980;27;20492;-79
2022/03/02 03:40:18;;;;;;;14.45;9.05;;;;;;;;;;5187774;27;20247;-76
2022/03/02 03:42:44;;;;;;;10.77;7.57;;;;;;;;;;5192326;27;20650;-78
2022/03/02 03:45:10;;;;;;;11.32;8.38;;;;;;;;;;5190527;27;20189;-77
2022/03/02 03:47:36;;;;;;;13.57;8.35;;;;;;;;;;5119837;27;20187;-79
2022/03/02 03:50:03;;;;;;;11.48;7.55;;;;;;;;;;5110903;28;20258;-79
2022/03/02 03:52:29;;;;;;;14.02;8.50;;;;;;;;;;5087994;28;20222;-77
2022/03/02 03:54:55;;;;;;;11.03;7.47;;;;;;;;;;5017537;28;20240;-79
2022/03/02 03:57:21;;;;;;;12.60;8.30;;;;;;;;;;4981690;28;20492;-79
2022/03/02 04:02:48;;;;;;;14.52;8.63;;;;;;;;;;5192809;27;21011;-76
2022/03/02 04:05:14;;;;;;;13.82;8.00;;;;;;;;;;5186390;27;20185;-75
2022/03/02 04:07:40;;;;;;;11.60;8.05;;;;;;;;;;5171136;27;20200;-76
2022/03/02 04:10:07;;;;;;;13.05;8.20;;;;;;;;;;5170352;27;20285;-79
2022/03/02 04:12:33;;;;;;;9.88;7.43;;;;;;;;;;5111101;27;20190;-77
2022/03/02 04:14:59;;;;;;;12.23;7.95;;;;;;;;;;5051163;28;20227;-80
2022/03/02 04:17:25;;;;;;;11.88;7.10;;;;;;;;;;5068367;28;20545;-78
2022/03/02 04:19:51;;;;;;;12.53;7.90;;;;;;;;;;5050453;28;20215;-78
2022/03/02 04:22:17;;;;;;;14.57;8.40;;;;;;;;;;4878051;29;20571;-78
2022/03/02 04:27:16;;;;;;;15.30;8.40;;;;;;;;;;5174250;27;20824;-78
2022/03/02 04:29:42;;;;;;;15.88;8.55;;;;;;;;;;5187665;27;20200;-77
2022/03/02 04:32:08;;;;;;;17.35;8.40;;;;;;;;;;5191946;27;20196;-77
2022/03/02 04:34:34;;;;;;;14.95;8.95;;;;;;;;;;5165582;27;20194;-81
2022/03/02 04:37:00;;;;;;;15.40;8.77;;;;;;;;;;5145452;27;20221;-78
2022/03/02 04:39:26;;;;;;;15.40;8.80;;;;;;;;;;5101754;28;20482;-78
2022/03/02 04:41:52;;;;;;;14.85;7.65;;;;;;;;;;5125805;27;20454;-78
2022/03/02 04:44:18;;;;;;;11.95;8.07;;;;;;;;;;5078665;27;20563;-79
2022/03/02 04:46:48;;;;;;;10.75;7.63;;;;;;;;;;5056451;28;20232;-77
2022/03/02 04:51:53;;;;;;;11.85;8.35;;;;;;;;;;5192647;27;21011;-79
2022/03/02 04:57:04;;;;;;;10.68;7.35;;;;;;;;;;5157141;27;20691;-79
2022/03/02 04:59:31;;;;;;;14.45;7.68;;;;;;;;;;5170265;27;20189;-77
2022/03/02 05:01:57;;;;;;;13.20;8.32;;;;;;;;;;5156334;27;20185;-77
2022/03/02 05:04:23;;;;;;;14.38;7.90;;;;;;;;;;5136523;27;20284;-76
2022/03/02 05:06:49;;;;;;;13.13;8.43;;;;;;;;;;5136460;27;20562;-76
2022/03/02 05:09:15;;;;;;;16.30;8.40;;;;;;;;;;5106763;28;20195;-78
2022/03/02 05:11:41;;;;;;;12.07;8.05;;;;;;;;;;4990626;28;20278;-76
2022/03/02 05:16:33;;;;;;;13.70;8.57;;;;;;;;;;5179949;27;20857;-78
2022/03/02 05:18:59;;;;;;;10.57;8.03;;;;;;;;;;5187768;27;20192;-78
2022/03/02 05:21:25;;;;;;;13.38;8.18;;;;;;;;;;5192347;27;20417;-76
2022/03/02 05:23:51;;;;;;;13.18;7.78;;;;;;;;;;5191367;27;20189;-76
2022/03/02 05:26:17;;;;;;;12.13;7.70;;;;;;;;;;5136655;27;20281;-78
2022/03/02 05:28:43;;;;;;;13.00;7.00;;;;;;;;;;5059203;28;20431;-79
2022/03/02 05:31:09;;;;;;;14.53;8.63;;;;;;;;;;5030284;28;20983;-78
2022/03/02 05:33:35;;;;;;;17.20;8.83;;;;;;;;;;4957487;28;20552;-79
2022/03/02 05:36:01;;;;;;;13.77;8.23;;;;;;;;;;4930280;28;20487;-79
2022/03/02 05:41:01;;;;;;;14.93;9.00;;;;;;;;;;5193197;27;20287;-76
2022/03/02 05:43:27;;;;;;;10.87;7.67;;;;;;;;;;5187773;27;20193;-77
2022/03/02 05:45:53;;;;;;;15.07;9.23;;;;;;;;;;5184962;27;20441;-78
2022/03/02 05:48:19;;;;;;;13.43;9.43;;;;;;;;;;5170463;27;20193;-76
2022/03/02 05:50:45;;;;;;;14.77;8.47;;;;;;;;;;5121421;27;20503;-78
2022/03/02 05:53:11;;;;;;;14.48;8.60;;;;;;;;;;5050988;28;20430;-80
2022/03/02 05:55:37;;;;;;;14.10;8.40;;;;;;;;;;5005140;28;20223;-78
2022/03/02 05:58:03;;;;;;;11.60;8.20;;;;;;;;;;4973162;28;20797;-79
2022/03/02 06:00:29;;;;;;;14.32;8.52;;;;;;;;;;4938346;28;20622;-78
2022/03/02 06:05:12;;;;;;;12.00;7.97;;;;;;;;;;5191715;27;20689;-77
2022/03/02 06:07:39;;;;;;;12.27;8.25;;;;;;;;;;5168507;27;20201;-77
2022/03/02 06:10:05;;;;;;;10.68;7.45;;;;;;;;;;5172511;27;20177;-77
2022/03/02 06:12:31;;;;;;;11.32;7.80;;;;;;;;;;5191527;27;20216;-77
2022/03/02 06:14:57;;;;;;;16.23;8.57;;;;;;;;;;5125205;27;20712;-76
2022/03/02 06:17:24;;;;;;;12.85;8.65;;;;;;;;;;5076248;28;20630;-77
2022/03/02 06:19:50;;;;;;;14.93;8.70;;;;;;;;;;5050102;28;20193;-78
2022/03/02 06:22:23;;;;;;;20.17;10.20;;;;;;;;;;5006555;28;20186;-78
2022/03/02 06:24:51;;;;;;;14.55;8.75;;;;;;;;;;4929867;28;20224;-78
2022/03/02 06:29:54;;;;;;;15.45;9.10;;;;;;;;;;5193115;27;20498;-77
2022/03/02 06:32:20;;;;;;;15.93;9.60;;;;;;;;;;5187754;27;20179;-78
2022/03/02 06:34:47;;;;;;;11.68;8.40;;;;;;;;;;5191856;27;20454;-78
2022/03/02 06:37:13;;;;;;;14.43;8.68;;;;;;;;;;5172866;27;20220;-77
2022/03/02 06:39:39;;;;;;;17.20;9.95;;;;;;;;;;5113171;27;20613;-78
2022/03/02 06:42:25;;;;;;;13.57;9.13;;;;;;;;;;5084419;28;20267;-77
2022/03/02 06:44:55;;;;;;;15.93;9.20;;;;;;;;;;5051995;28;20184;-78
2022/03/02 06:47:33;;;;;;;15.60;9.90;;;;;;;;;;5044190;28;20216;-78
2022/03/02 06:50:02;;;;;;;21.15;9.63;;;;;;;;;;4874187;29;20268;-79
2022/03/02 06:54:36;;;;;;;14.27;9.00;;;;;;;;;;5193277;27;20472;-77
2022/03/02 06:57:03;;;;;;;12.52;8.50;;;;;;;;;;5170692;27;20220;-78
2022/03/02 06:59:29;;;;;;;13.82;9.55;;;;;;;;;;5171077;27;20197;-78
2022/03/02 07:01:59;;;;;;;13.00;8.90;;;;;;;;;;5150392;27;20197;-78
2022/03/02 07:04:25;;;;;;;18.80;9.07;;;;;;;;;;5145531;27;20432;-77
2022/03/02 07:06:52;;;;;;;15.93;9.18;;;;;;;;;;5130915;27;20570;-78
2022/03/02 07:09:19;;;;;;;14.00;9.55;;;;;;;;;;5110860;28;20199;-79
2022/03/02 07:11:47;;;;;;;15.65;10.73;;;;;;;;;;5088310;28;20196;-75
2022/03/02 07:14:15;;;;;;;14.80;9.77;;;;;;;;;;5058792;28;20688;-78
2022/03/02 07:19:15;;;;;;;16.60;9.65;;;;;;;;;;5193081;27;21007;-77
2022/03/02 07:21:45;;;;;;;16.10;9.48;;;;;;;;;;5187652;27;20192;-78
2022/03/02 07:24:11;;;;;;;14.30;9.25;;;;;;;;;;5192133;27;20570;-77
2022/03/02 07:26:39;;;;;;;18.57;9.03;;;;;;;;;;5177793;27;20206;-77
2022/03/02 07:29:08;;;;;;;15.82;10.25;;;;;;;;;;5160687;27;20507;-77
2022/03/02 07:31:35;;;;;;;13.90;9.85;;;;;;;;;;5146334;27;20191;-78
2022/03/02 07:34:02;;;;;;;14.82;8.95;;;;;;;;;;5036027;28;20198;-77
2022/03/02 07:36:28;;;;;;;13.70;9.18;;;;;;;;;;5040566;28;20603;-76
2022/03/02 07:38:54;;;;;;;16.35;9.63;;;;;;;;;;5014894;28;20582;-79
2022/03/02 07:43:58;;;;;;;14.63;9.23;;;;;;;;;;5192576;27;20492;-77
2022/03/02 07:46:28;;;;;;;13.60;9.35;;;;;;;;;;5158172;27;20209;-78
2022/03/02 07:48:54;;;;;;;13.57;9.95;;;;;;;;;;5132622;27;20192;-78
2022/03/02 07:51:20;;;;;;;15.40;10.10;;;;;;;;;;5170187;27;20280;-78
2022/03/02 07:53:49;;;;;;;15.95;9.80;;;;;;;;;;5146310;27;20448;-78
2022/03/02 07:56:16;;;;;;;18.50;9.82;;;;;;;;;;5093858;28;20218;-79
2022/03/02 07:58:42;;;;;;;13.63;8.95;;;;;;;;;;5062485;28;20660;-79
2022/03/02 08:01:09;;;;;;;12.07;9.23;;;;;;;;;;5053312;28;20198;-77
2022/03/02 08:03:38;;;;;;;18.08;10.05;;;;;;;;;;4996539;28;20293;-76
2022/03/02 08:08:40;;;;;;;13.10;9.15;;;;;;;;;;5193268;27;20290;-77
2022/03/02 08:11:06;;;;;;;14.45;8.90;;;;;;;;;;5171038;27;20649;-79
2022/03/02 08:13:33;;;;;;;13.13;8.73;;;;;;;;;;5191865;27;20199;-78
2022/03/02 08:15:59;;;;;;;15.13;9.48;;;;;;;;;;5183408;27;20665;-79
2022/03/02 08:18:25;;;;;;;10.68;7.95;;;;;;;;;;5157224;27;20519;-77
2022/03/02 08:20:53;;;;;;;12.50;9.57;;;;;;;;;;5128129;27;20213;-79
2022/03/02 08:23:19;;;;;;;11.80;8.32;;;;;;;;;;5129044;27;20191;-76
2022/03/02 08:25:52;;;;;;;12.63;8.43;;;;;;;;;;5093031;28;20668;-77
2022/03/02 08:28:19;;;;;;;13.40;8.27;;;;;;;;;;5030055;28;20226;-78
2022/03/02 08:33:21;;;;;;;9.13;7.70;;;;;;;;;;5193058;27;20627;-77
2022/03/02 08:35:49;;;;;;;15.23;9.13;;;;;;;;;;5181613;27;20650;-79
2022/03/02 08:38:16;;;;;;;16.05;7.53;;;;;;;;;;5171026;27;20649;-78
2022/03/02 08:40:43;;;;;;;15.00;9.43;;;;;;;;;;5145190;27;20658;-80
2022/03/02 08:43:09;;;;;;;18.30;8.32;;;;;;;;;;5067200;28;20268;-77
2022/03/02 08:45:34;;;;;;;12.77;9.10;;;;;;;;;;5099751;28;20206;-79
2022/03/02 08:48:03;;;;;;;17.58;9.75;;;;;;;;;;5032619;28;20546;-79
2022/03/02 08:50:29;;;;;;;12.82;8.63;;;;;;;;;;4991419;28;20219;-78
2022/03/02 08:52:56;;;;;;;14.98;10.40;;;;;;;;;;4931046;28;20239;-80
2022/03/02 08:58:02;;;;;;;14.75;9.40;;;;;;;;;;5192801;27;20836;-79
2022/03/02 09:00:28;;;;;;;18.55;10.07;;;;;;;;;;5187985;27;20576;-78
2022/03/02 09:02:54;;;;;;;19.58;10.10;;;;;;;;;;5192172;27;20703;-78
2022/03/02 09:05:20;;;;;;;13.33;8.33;;;;;;;;;;5189348;27;20196;-79
2022/03/02 09:07:46;;;;;;;16.17;10.05;;;;;;;;;;5100918;28;20432;-76
2022/03/02 09:10:12;;;;;;;12.80;8.82;;;;;;;;;;5118523;27;20185;-78
2022/03/02 09:12:41;;;;;;;12.85;9.30;;;;;;;;;;5145482;27;20186;-78
2022/03/02 09:15:07;;;;;;;14.98;9.18;;;;;;;;;;5141792;27;20190;-78
2022/03/02 09:17:33;;;;;;;15.25;9.32;;;;;;;;;;5139455;27;20266;-78
2022/03/02 09:22:38;;;;;;;12.95;8.90;;;;;;;;;;5193162;27;20492;-78
2022/03/02 09:25:06;;;;;;;19.17;10.00;;;;;;;;;;5170794;27;20196;-77
2022/03/02 09:27:32;;;;;;;12.93;8.55;;;;;;;;;;5152873;27;20221;-78
2022/03/02 09:29:59;;;;;;;23.20;9.23;;;;;;;;;;5147126;27;20194;-77
2022/03/02 09:32:25;;;;;;;16.63;9.77;;;;;;;;;;5125603;27;20192;-78
2022/03/02 09:34:53;;;;;;;16.00;9.40;;;;;;;;;;5085552;28;20300;-79
2022/03/02 09:37:21;;;;;;;14.47;10.10;;;;;;;;;;5087681;28;20446;-79
2022/03/02 09:39:47;;;;;;;13.07;9.90;;;;;;;;;;5115546;28;20456;-78
2022/03/02 09:42:15;;;;;;;16.10;9.13;;;;;;;;;;4971338;28;20487;-79
2022/03/02 09:46:50;;;;;;;11.60;8.77;;;;;;;;;;5177719;27;20502;-79
2022/03/02 09:49:20;;;;;;;9.10;8.10;;;;;;;;;;5171107;27;20392;-77
2022/03/02 09:51:50;;;;;;;13.17;8.33;;;;;;;;;;5172925;27;20512;-78
2022/03/02 09:54:20;;;;;;;12.83;9.03;;;;;;;;;;5191305;27;20417;-78
2022/03/02 09:56:49;;;;;;;9.73;7.40;;;;;;;;;;5130882;27;20410;-75
2022/03/02 09:59:17;;;;;;;9.80;7.00;;;;;;;;;;5063277;28;20841;-78
2022/03/02 10:01:44;;;;;;;11.80;8.37;;;;;;;;;;5067282;28;20527;-77
2022/03/02 10:04:18;;;;;;;10.03;7.53;;;;;;;;;;5058613;28;20882;-77
2022/03/02 10:06:44;;;;;;;8.00;7.10;;;;;;;;;;5033697;28;20458;-77
2022/03/02 10:10:33;;;;;;;7.60;6.87;;;;;;;;;;5183890;27;20485;-78
2022/03/02 10:13:00;;;;;;;10.10;8.00;;;;;;;;;;5127086;27;20427;-77
2022/03/02 10:15:26;;;;;;;10.83;7.00;;;;;;;;;;5162745;27;20476;-76
2022/03/02 10:17:53;;;;;;;9.63;7.47;;;;;;;;;;5126181;27;20421;-77
2022/03/02 10:20:20;;;;;;;11.87;9.37;;;;;;;;;;5136715;27;20432;-78
2022/03/02 10:22:47;;;;;;;10.30;7.40;;;;;;;;;;5149565;27;20405;-77
2022/03/02 10:25:14;;;;;;;11.90;8.43;;;;;;;;;;5116268;28;20432;-78
2022/03/02 10:27:46;;;;;;;11.23;7.50;;;;;;;;;;4969939;28;20477;-78
2022/03/02 10:30:12;;;;;;;11.03;7.90;;;;;;;;;;4912271;28;20481;-76
2022/03/02 10:35:00;;;;;;;8.70;7.00;;;;;;;;;;5192526;27;20477;-78
2022/03/02 10:37:30;;;;;;;11.50;7.43;;;;;;;;;;5168213;27;20491;-76
2022/03/02 10:39:58;;;;;;;11.77;8.40;;;;;;;;;;5137255;27;20389;-76
2022/03/02 10:42:26;;;;;;;12.10;8.43;;;;;;;;;;5170269;27;20478;-78
2022/03/02 10:45:10;;;;;;;10.57;8.70;;;;;;;;;;5149017;27;20772;-80
2022/03/02 10:47:57;;;;;;;12.60;9.37;;;;;;;;;;5032098;28;20427;-79
2022/03/02 10:50:24;;;;;;;10.37;8.03;;;;;;;;;;4905908;29;20753;-80
2022/03/02 10:52:52;;;;;;;12.03;7.93;;;;;;;;;;4886922;29;26278;-78
2022/03/02 10:55:20;;;;;;;14.73;8.23;;;;;;;;;;4778405;29;20495;-78
2022/03/02 10:59:55;;;;;;;11.47;7.87;;;;;;;;;;5193279;27;20470;-78
2022/03/02 11:02:24;;;;;;;8.73;7.83;;;;;;;;;;5187650;27;20392;-78
2022/03/02 11:04:54;;;;;;;10.77;8.07;;;;;;;;;;5172622;27;20917;-78
2022/03/02 11:07:21;;;;;;;8.93;7.57;;;;;;;;;;5172136;27;20416;-78
2022/03/02 11:09:49;;;;;;;10.10;8.33;;;;;;;;;;5139537;27;20453;-78
2022/03/02 11:12:16;;;;;;;13.27;8.00;;;;;;;;;;5116641;27;20954;-78
2022/03/02 11:14:56;;;;;;;9.00;7.30;;;;;;;;;;5120461;27;20438;-78
2022/03/02 11:17:23;;;;;;;7.60;6.87;;;;;;;;;;5035085;28;20511;-77
2022/03/02 11:19:49;;;;;;;8.67;7.77;;;;;;;;;;4959405;28;20497;-77
2022/03/02 11:24:41;;;;;;;8.47;6.73;;;;;;;;;;5193047;27;20485;-76
2022/03/02 11:27:07;;;;;;;9.23;7.87;;;;;;;;;;5172216;27;20774;-79
2022/03/02 11:29:33;;;;;;;9.20;7.87;;;;;;;;;;5151672;27;20503;-78
2022/03/02 11:32:10;;;;;;;7.97;7.17;;;;;;;;;;5163804;27;20935;-80
2022/03/02 11:34:42;;;;;;;7.80;6.60;;;;;;;;;;5133862;27;20439;-76
2022/03/02 11:37:09;;;;;;;8.10;7.00;;;;;;;;;;5120693;27;20426;-76
2022/03/02 11:39:41;;;;;;;8.30;7.40;;;;;;;;;;5096434;27;20484;-80
2022/03/02 11:42:09;;;;;;;8.90;6.80;;;;;;;;;;5001484;28;20438;-79
2022/03/02 11:44:36;;;;;;;7.30;6.60;;;;;;;;;;4963209;28;20450;-77
2022/03/02 11:48:41;;;;;;;6.97;6.17;;;;;;;;;;5192732;27;20496;-78
2022/03/02 11:51:07;;;;;;;10.00;6.53;;;;;;;;;;5168646;27;20767;-76
2022/03/02 11:53:45;;;;;;;7.90;6.30;;;;;;;;;;5191671;27;20421;-76
2022/03/02 11:56:12;;;;;;;9.00;6.43;;;;;;;;;;5122252;28;20415;-76
2022/03/02 11:58:57;;;;;;;7.90;7.10;;;;;;;;;;5048763;28;20491;-78
2022/03/02 12:01:24;;;;;;;7.50;6.20;;;;;;;;;;4938481;28;20434;-76
2022/03/02 12:03:57;;;;;;;8.17;6.47;;;;;;;;;;4935051;28;20450;-79
2022/03/02 12:06:24;;;;;;;8.70;6.50;;;;;;;;;;4815540;29;20854;-79
2022/03/02 12:11:26;;;;;;;9.40;7.63;;;;;;;;;;5193070;27;20299;-77
2022/03/02 12:14:01;;;;;;;7.70;6.90;;;;;;;;;;5169196;27;20393;-76
2022/03/02 12:16:38;;;;;;;7.00;6.30;;;;;;;;;;5161219;27;20769;-78
2022/03/02 12:19:04;;;;;;;7.80;6.27;;;;;;;;;;5167099;27;20386;-78
2022/03/02 12:21:30;;;;;;;13.23;6.60;;;;;;;;;;5137209;27;20402;-78
2022/03/02 12:23:59;;;;;;;9.30;7.80;;;;;;;;;;5123729;27;20409;-82
2022/03/02 12:26:25;;;;;;;8.80;7.57;;;;;;;;;;5116047;28;20445;-78
2022/03/02 12:28:57;;;;;;;9.27;7.30;;;;;;;;;;4992271;28;20903;-78
2022/03/02 12:31:30;;;;;;;7.70;6.90;;;;;;;;;;4923070;28;20445;-79
2022/03/02 12:35:34;;;;;;;8.10;6.57;;;;;;;;;;5188622;27;20494;-75
2022/03/02 12:38:02;;;;;;;7.37;6.57;;;;;;;;;;5170757;27;20525;-77
2022/03/02 12:40:30;;;;;;;9.20;7.20;;;;;;;;;;5192080;27;20525;-79
2022/03/02 12:42:57;;;;;;;7.33;6.57;;;;;;;;;;5171421;27;20446;-78
2022/03/02 12:45:23;;;;;;;9.03;7.03;;;;;;;;;;5143427;27;20413;-77
2022/03/02 12:47:50;;;;;;;7.87;6.83;;;;;;;;;;5076172;28;20486;-77
2022/03/02 12:50:17;;;;;;;9.10;7.33;;;;;;;;;;5033030;28;20548;-78
2022/03/02 12:52:43;;;;;;;7.37;6.57;;;;;;;;;;5002498;28;23972;-77
2022/03/02 12:55:11;;;;;;;12.23;7.57;;;;;;;;;;4981868;28;20482;-75
2022/03/02 12:59:46;;;;;;;10.50;7.20;;;;;;;;;;5193024;27;20484;-78
2022/03/02 13:02:19;;;;;;;11.67;7.47;;;;;;;;;;5170281;27;20408;-77
2022/03/02 13:04:58;;;;;;;7.30;6.40;;;;;;;;;;5186165;27;20427;-77
2022/03/02 13:07:29;;;;;;;7.83;7.03;;;;;;;;;;5122987;27;20416;-77
2022/03/02 13:09:55;;;;;;;8.43;6.67;;;;;;;;;;5111533;28;20521;-78
2022/03/02 13:12:27;;;;;;;7.03;6.10;;;;;;;;;;5095003;28;20790;-80
2022/03/02 13:14:53;;;;;;;7.60;5.93;;;;;;;;;;5103091;28;20821;-79
2022/03/02 13:17:21;;;;;;;8.00;6.27;;;;;;;;;;5075976;28;20482;-78
2022/03/02 13:19:48;;;;;;;9.10;6.63;;;;;;;;;;4944466;28;20436;-76
2022/03/02 13:24:45;;;;;;;7.93;6.07;;;;;;;;;;5193198;27;20968;-77
2022/03/02 13:27:12;;;;;;;8.00;7.17;;;;;;;;;;5151356;27;20538;-74
2022/03/02 13:29:55;;;;;;;8.90;7.17;;;;;;;;;;5170961;27;20437;-74
2022/03/02 13:32:22;;;;;;;7.73;6.67;;;;;;;;;;5122571;28;20428;-75
2022/03/02 13:35:05;;;;;;;8.10;6.53;;;;;;;;;;5070992;28;20427;-77
2022/03/02 13:37:49;;;;;;;7.63;6.90;;;;;;;;;;5000894;28;20450;-77
2022/03/02 13:40:34;;;;;;;7.63;6.60;;;;;;;;;;4918918;28;21337;-77
2022/03/02 13:43:06;;;;;;;7.90;6.67;;;;;;;;;;4838133;29;20485;-75
2022/03/02 13:45:38;;;;;;;7.53;6.80;;;;;;;;;;4838234;29;20532;-78
2022/03/02 13:49:08;;;;;;;10.03;7.20;;;;;;;;;;5193098;27;20480;-76
2022/03/02 13:51:48;;;;;;;7.73;6.93;;;;;;;;;;5187593;27;20429;-77
2022/03/02 13:54:24;;;;;;;9.73;7.47;;;;;;;;;;5147872;27;20431;-77
2022/03/02 13:56:51;;;;;;;8.37;7.20;;;;;;;;;;5092194;28;20961;-77
2022/03/02 13:59:17;;;;;;;10.10;8.20;;;;;;;;;;5081573;28;20439;-78
2022/03/02 14:01:43;;;;;;;7.33;6.63;;;;;;;;;;5032776;28;20436;-78
2022/03/02 14:04:12;;;;;;;7.63;6.90;;;;;;;;;;5022965;28;20438;-78
2022/03/02 14:06:39;;;;;;;7.57;6.80;;;;;;;;;;5032635;28;20448;-78
2022/03/02 14:09:06;;;;;;;7.37;6.77;;;;;;;;;;4961636;28;20877;-79
2022/03/02 14:13:49;;;;;;;7.20;6.53;;;;;;;;;;5192852;27;20484;-78
2022/03/02 14:16:15;;;;;;;8.40;7.60;;;;;;;;;;5177466;27;20846;-77
2022/03/02 14:18:42;;;;;;;7.13;6.43;;;;;;;;;;5170939;27;20422;-77
2022/03/02 14:21:09;;;;;;;8.33;6.90;;;;;;;;;;5146090;27;20515;-78
2022/03/02 14:23:44;;;;;;;7.53;6.50;;;;;;;;;;5132620;27;20482;-78
2022/03/02 14:26:10;;;;;;;7.07;6.40;;;;;;;;;;5095212;28;20445;-77
2022/03/02 14:28:41;;;;;;;8.67;7.70;;;;;;;;;;5043551;28;20412;-78
2022/03/02 14:31:08;;;;;;;7.80;7.10;;;;;;;;;;5009745;28;20913;-78
2022/03/02 14:33:34;;;;;;;7.33;6.63;;;;;;;;;;4884691;29;20487;-76
2022/03/02 14:38:16;;;;;;;8.43;7.63;;;;;;;;;;5193125;27;20484;-77
2022/03/02 14:40:42;;;;;;;9.87;7.33;;;;;;;;;;5187727;27;20445;-79
2022/03/02 14:43:25;;;;;;;10.07;6.83;;;;;;;;;;5192197;27;22833;-79
2022/03/02 14:45:55;;;;;;;7.80;7.00;;;;;;;;;;5156958;27;20431;-80
2022/03/02 14:48:22;;;;;;;7.10;6.40;;;;;;;;;;5135367;27;20504;-78
2022/03/02 14:50:51;;;;;;;7.60;6.80;;;;;;;;;;5062477;28;20452;-79
2022/03/02 14:53:19;;;;;;;7.73;6.90;;;;;;;;;;5060309;28;20410;-80
2022/03/02 14:55:56;;;;;;;8.77;7.40;;;;;;;;;;5019474;28;21027;-79
2022/03/02 14:58:28;;;;;;;6.70;6.00;;;;;;;;;;4907725;28;20455;-77
2022/03/02 15:02:55;;;;;;;8.53;7.73;;;;;;;;;;5192966;27;20484;-76
2022/03/02 15:05:23;;;;;;;7.23;6.53;;;;;;;;;;5185179;27;20421;-78
2022/03/02 15:07:49;;;;;;;13.93;8.23;;;;;;;;;;5171295;27;20429;-79
2022/03/02 15:10:19;;;;;;;8.80;7.90;;;;;;;;;;5169951;27;20437;-77
2022/03/02 15:15:38;;;;;;;11.03;7.97;;;;;;;;;;5124842;27;20425;-77
2022/03/02 15:18:22;;;;;;;8.70;7.50;;;;;;;;;;5144526;27;20427;-81
2022/03/02 15:20:52;;;;;;;9.63;8.00;;;;;;;;;;4991993;28;20485;-78
2022/03/02 15:23:19;;;;;;;8.47;7.67;;;;;;;;;;4975359;28;20409;-77
2022/03/02 15:28:18;;;;;;;8.33;6.80;;;;;;;;;;5181699;27;20290;-78
2022/03/02 15:30:44;;;;;;;7.90;6.90;;;;;;;;;;5161198;27;20433;-78
2022/03/02 15:33:13;;;;;;;8.80;7.20;;;;;;;;;;5188439;27;20485;-79
2022/03/02 15:35:40;;;;;;;7.80;6.60;;;;;;;;;;5173575;27;20446;-79
2022/03/02 15:38:16;;;;;;;7.93;7.00;;;;;;;;;;5162240;27;20392;-76
2022/03/02 15:40:43;;;;;;;8.80;7.30;;;;;;;;;;5087699;28;20504;-77
2022/03/02 15:43:13;;;;;;;7.67;6.83;;;;;;;;;;5095553;28;20490;-78
2022/03/02 15:45:40;;;;;;;7.00;6.33;;;;;;;;;;5051100;28;20458;-79
2022/03/02 15:48:16;;;;;;;10.43;7.33;;;;;;;;;;4955082;28;20481;-77
2022/03/02 15:52:47;;;;;;;11.93;8.30;;;;;;;;;;5193069;27;20915;-77
2022/03/02 15:55:21;;;;;;;9.90;7.67;;;;;;;;;;5186726;27;20457;-76
2022/03/02 15:57:55;;;;;;;8.20;7.13;;;;;;;;;;5154322;27;20498;-77
2022/03/02 16:00:25;;;;;;;8.23;7.43;;;;;;;;;;5143027;27;20474;-76
2022/03/02 16:02:52;;;;;;;11.70;7.70;;;;;;;;;;5106287;28;20407;-78
2022/03/02 16:05:19;;;;;;;10.07;7.30;;;;;;;;;;5108261;28;20753;-81
2022/03/02 16:08:08;;;;;;;8.13;7.30;;;;;;;;;;5036607;28;20436;-78
2022/03/02 16:10:35;;;;;;;14.13;8.30;;;;;;;;;;4861805;29;20769;-79
2022/03/02 16:13:10;;;;;;;10.10;8.00;;;;;;;;;;4714585;30;20838;-78
2022/03/02 16:17:11;;;;;;;10.40;8.63;;;;;;;;;;5162781;27;20495;-78